Terminal Aerodrome Forecast
Issued by NWS

Home | Current Version | Previous Version | Text Only | Print | Product List | Glossary On
Versions: 1 2 3 4 5 6 7 8 9 10 11 12
764
FTUS45 KTFX 010520
TAFCTB
TAF
KCTB 010520Z 0106/0206 30013G21KT P6SM VCSH SCT035 BKN050
      TEMPO 0106/0109 -SHRA BKN025
     FM011700 29013G21KT P6SM SCT040 BKN060 PROB30 0202/0206 -SHRA=

USA.gov is the U.S. government's official web portal to all federal, state and local government web resources and services.